»·PEaware :: N209K L35-KLAS

N209K :: L35-KLAS

FLIGHT INFORMATION

Flight Status: Arrived
Operator: Privately registered:
United States
More flights under this callsign
Pilot: Michael F. (10210)
Aircraft: BEECH AIRCRAFT BARON
(BE58)
More flights by this aircraft type
Origin: L35 Big Bear City
United States
Destination: KLAS McCarran Intl
United States
More flights between these airports :: More routes between these airports
Route: +HEC V21 BLD
File this flight plan on PilotEdge
Remarks:
Altitude:
(Current/Filed)
9,500ft
Speed:
(Current/Filed)
180kts
Departed: 05-Jun-16 06:15 PM
Arrived: 05-Jun-16 07:26 PM
Distance/Time
Traveled:
137nm/1:10
Distance/Time
To Go:
Arrived

Flight Plot

Page will automatically refresh every two minutes.

Flight plan parsing failed; only flown route is shown


Map Options




Map Legend


Flown Route
Filed Route
Departure Airport
Arrival Airport
Navaid (VOR, NDB)
Fix

Horizontal Profiles

Position Reports

Time Latitude Longitude Heading Altitude Ground
Speed
05-Jun-16 17:47 34.264528 -116.853384 269 6751ft 0kts
05-Jun-16 17:48 34.264528 -116.853384 269 6751ft 0kts
05-Jun-16 17:49 34.264528 -116.853384 269 6751ft 0kts
05-Jun-16 17:50 34.264528 -116.853384 269 6751ft 0kts
05-Jun-16 17:51 34.264528 -116.853384 269 6751ft 0kts
05-Jun-16 17:52 34.264528 -116.853384 269 6751ft 0kts
05-Jun-16 17:53 34.264528 -116.853384 269 6751ft 0kts
05-Jun-16 17:54 34.264528 -116.853384 269 6751ft 0kts
05-Jun-16 17:57 34.264527 -116.853388 269 6751ft 0kts
05-Jun-16 17:58 34.264527 -116.853388 269 6751ft 0kts
05-Jun-16 17:59 34.264527 -116.853388 269 6751ft 0kts
05-Jun-16 18:00 34.264527 -116.853388 269 6751ft 0kts
05-Jun-16 18:01 34.264527 -116.853388 269 6751ft 0kts
05-Jun-16 18:02 34.264527 -116.853388 269 6751ft 0kts
05-Jun-16 18:03 34.264527 -116.853388 269 6751ft 0kts
05-Jun-16 18:04 34.264527 -116.853388 269 6751ft 0kts
05-Jun-16 18:05 34.264527 -116.853388 269 6751ft 0kts
05-Jun-16 18:06 34.264527 -116.853388 269 6751ft 0kts
05-Jun-16 18:07 34.264527 -116.853388 269 6751ft 0kts
05-Jun-16 18:08 34.264358 -116.851010 91 6751ft 12kts
05-Jun-16 18:09 34.264371 -116.846722 101 6751ft 7kts
05-Jun-16 18:10 34.264316 -116.846595 138 6751ft 0kts
05-Jun-16 18:11 34.264298 -116.846576 141 6751ft 1kts
05-Jun-16 18:12 34.263812 -116.850522 269 6751ft 74kts
05-Jun-16 18:13 34.264415 -116.884056 270 7583ft 110kts
05-Jun-16 18:14 34.267774 -116.921599 276 8674ft 121kts
05-Jun-16 18:15 34.273293 -116.965239 276 9487ft 143kts
05-Jun-16 18:16 34.289681 -117.013892 324 9613ft 186kts
05-Jun-16 18:17 34.338061 -116.994307 33 9865ft 201kts
05-Jun-16 18:18 34.383095 -116.947211 39 9617ft 224kts
05-Jun-16 18:19 34.430543 -116.896884 39 9402ft 227kts
05-Jun-16 18:20 34.469634 -116.854693 40 9364ft 225kts
05-Jun-16 18:21 34.522381 -116.794301 42 9461ft 222kts
05-Jun-16 18:22 34.559470 -116.750967 42 9446ft 224kts
05-Jun-16 18:23 34.604209 -116.698656 42 9447ft 224kts
05-Jun-16 18:24 34.648995 -116.646264 42 9445ft 224kts
05-Jun-16 18:25 34.693770 -116.593743 42 9463ft 222kts
05-Jun-16 18:26 34.732440 -116.541425 49 10201ft 201kts
05-Jun-16 18:27 34.770002 -116.494636 37 10947ft 189kts
05-Jun-16 18:28 34.811556 -116.448499 41 10958ft 213kts
05-Jun-16 18:29 34.855343 -116.397568 46 10953ft 221kts
05-Jun-16 18:30 34.896252 -116.341654 43 10956ft 222kts
05-Jun-16 18:31 34.940657 -116.290083 42 10990ft 222kts
05-Jun-16 18:32 34.984562 -116.237120 44 10998ft 223kts
05-Jun-16 18:33 35.028563 -116.183901 43 11002ft 223kts
05-Jun-16 18:34 35.072818 -116.131138 43 10971ft 225kts
05-Jun-16 18:35 35.115083 -116.075099 47 10953ft 224kts
05-Jun-16 18:36 35.156619 -116.018779 47 10964ft 223kts
05-Jun-16 18:37 35.193167 -115.966944 51 10922ft 181kts
05-Jun-16 18:38 35.223811 -115.920391 50 10919ft 173kts
05-Jun-16 18:39 35.254260 -115.875472 50 10937ft 171kts
05-Jun-16 18:40 35.285186 -115.831031 50 10911ft 171kts
05-Jun-16 18:41 35.316069 -115.786648 50 10935ft 178kts
05-Jun-16 18:42 35.351392 -115.736474 48 10921ft 204kts
05-Jun-16 18:43 35.390773 -115.683384 48 10891ft 213kts
05-Jun-16 18:44 35.430710 -115.629543 48 10930ft 213kts
05-Jun-16 18:45 35.470494 -115.575847 48 10982ft 213kts
05-Jun-16 18:46 35.510836 -115.521382 48 10937ft 216kts
05-Jun-16 18:47 35.551012 -115.467120 47 10965ft 215kts
05-Jun-16 18:48 35.591352 -115.412624 48 10940ft 215kts
05-Jun-16 18:49 35.631499 -115.358371 47 10935ft 215kts
05-Jun-16 18:50 35.671711 -115.304011 48 10937ft 215kts
05-Jun-16 18:51 35.711906 -115.249659 47 10945ft 215kts
05-Jun-16 18:52 35.752145 -115.195219 47 10954ft 215kts
05-Jun-16 18:53 35.792484 -115.140702 47 10939ft 215kts
05-Jun-16 18:54 35.833006 -115.086235 47 10900ft 217kts
05-Jun-16 18:55 35.873588 -115.031904 47 10667ft 218kts
05-Jun-16 18:56 35.913525 -114.977742 48 9613ft 210kts
05-Jun-16 18:57 35.952424 -114.925255 48 8570ft 205kts
05-Jun-16 18:58 35.989869 -114.874539 51 7493ft 197kts
05-Jun-16 18:59 36.025110 -114.826669 40 6933ft 170kts
05-Jun-16 19:00 36.052212 -114.845712 284 6954ft 118kts
05-Jun-16 19:01 36.066276 -114.891379 284 6471ft 149kts
05-Jun-16 19:02 36.074653 -114.943320 262 5376ft 151kts
05-Jun-16 19:03 36.072696 -114.993824 257 4255ft 143kts
05-Jun-16 19:04 36.073270 -115.038960 274 3349ft 106kts
05-Jun-16 19:05 36.073526 -115.075584 263 2951ft 114kts
05-Jun-16 19:06 36.073678 -115.113397 262 2409ft 106kts
05-Jun-16 19:07 36.073637 -115.149992 263 2545ft 111kts
05-Jun-16 19:08 36.073656 -115.188650 263 3535ft 113kts
05-Jun-16 19:09 36.071776 -115.227621 261 4435ft 114kts
05-Jun-16 19:10 36.050795 -115.229960 104 4944ft 152kts
05-Jun-16 19:11 36.053603 -115.175384 90 5025ft 170kts
05-Jun-16 19:12 36.059234 -115.112964 87 5030ft 191kts
05-Jun-16 19:13 36.055151 -115.047491 97 4936ft 194kts
05-Jun-16 19:14 36.049872 -114.983023 101 5010ft 186kts
05-Jun-16 19:15 36.043853 -114.919743 103 5039ft 182kts
05-Jun-16 19:16 36.045116 -114.859503 42 5031ft 194kts
05-Jun-16 19:17 36.074567 -114.889689 265 4974ft 159kts
05-Jun-16 19:18 36.073993 -114.943862 265 4700ft 146kts
05-Jun-16 19:19 36.073972 -114.989758 266 4028ft 117kts
05-Jun-16 19:20 36.073754 -115.027272 262 3667ft 107kts
05-Jun-16 19:21 36.073825 -115.065656 263 3095ft 119kts
05-Jun-16 19:22 36.073669 -115.105092 263 2552ft 113kts
05-Jun-16 19:23 36.073587 -115.137385 268 2144ft 26kts
05-Jun-16 19:24 36.074272 -115.144957 292 2144ft 14kts
05-Jun-16 19:25 36.074615 -115.145805 297 2144ft 0kts

Navigation Log

Ident Type
Flight plan parsing failed, navigation log unavailable